Time;durP1;ratioP1;P1;durP2;ratioP2;P2;SDS_P1;SDS_P2;PMS_P1;PMS_P2;Temp;Humidity;BMP_temperature;BMP_pressure;BME280_temperature;BME280_humidity;BME280_pressure;Samples;Min_cycle;Max_cycle;Signal;HPM_P1;HPM_P2
2022/12/18 00:02:11;;;;;;;30.20;15.43;;;-0.20;69.30;;;;;;2346629;57;21521;-46
2022/12/18 00:04:38;;;;;;;28.55;15.73;;;-0.20;69.10;;;;;;2346900;57;21050;-49
2022/12/18 00:07:05;;;;;;;26.17;13.57;;;-0.30;69.00;;;;;;2346836;57;21105;-49
2022/12/18 00:09:33;;;;;;;26.05;14.27;;;-0.30;69.20;;;;;;2346496;57;21045;-51
2022/12/18 00:12:00;;;;;;;29.83;15.50;;;-0.30;69.20;;;;;;2346612;57;21129;-49
2022/12/18 00:14:27;;;;;;;29.25;15.73;;;-0.30;69.00;;;;;;2347088;57;21108;-48
2022/12/18 00:16:54;;;;;;;28.75;14.95;;;-0.30;68.90;;;;;;2347088;57;21105;-47
2022/12/18 00:19:21;;;;;;;27.58;15.65;;;-0.20;68.80;;;;;;2346960;57;21648;-48
2022/12/18 00:21:48;;;;;;;26.55;13.77;;;-0.30;68.70;;;;;;2347017;57;21093;-50
2022/12/18 00:26:51;;;;;;;24.95;14.57;;;-0.30;69.20;;;;;;2354784;57;22054;-50
2022/12/18 00:29:19;;;;;;;32.28;14.87;;;-0.30;68.60;;;;;;2346883;57;21032;-50
2022/12/18 00:31:46;;;;;;;28.35;14.57;;;-0.30;68.10;;;;;;2346908;57;21054;-52
2022/12/18 00:34:13;;;;;;;27.73;14.38;;;-0.40;68.60;;;;;;2346529;57;21105;-47
2022/12/18 00:36:41;;;;;;;26.80;14.57;;;-0.40;68.70;;;;;;2345067;57;21070;-49
2022/12/18 00:39:10;;;;;;;26.27;14.50;;;-0.40;68.70;;;;;;2345470;57;21050;-48
2022/12/18 00:44:23;;;;;;;27.02;14.63;;;-0.40;68.50;;;;;;2345724;57;21077;-49
2022/12/18 00:46:50;;;;;;;29.58;15.10;;;-0.40;68.40;;;;;;2592860;53;21054;-48
2022/12/18 00:49:19;;;;;;;26.08;13.40;;;-0.50;68.40;;;;;;2345868;57;21038;-48
2022/12/18 00:51:46;;;;;;;27.95;13.98;;;-0.50;68.50;;;;;;2344641;57;22259;-45
2022/12/18 00:54:14;;;;;;;24.08;13.52;;;-0.60;68.40;;;;;;2345084;57;21557;-49
2022/12/18 00:56:41;;;;;;;25.58;13.15;;;-0.50;68.50;;;;;;2591704;53;21022;-50
2022/12/18 00:59:08;;;;;;;28.25;13.27;;;-0.50;68.80;;;;;;2345853;57;21030;-49
2022/12/18 01:01:35;;;;;;;23.75;13.00;;;-0.50;68.80;;;;;;2346043;57;21041;-48
2022/12/18 01:04:04;;;;;;;29.05;13.68;;;-0.50;68.60;;;;;;2345694;57;21050;-50
2022/12/18 01:06:31;;;;;;;26.27;12.98;;;-0.50;68.40;;;;;;2346788;57;21077;-54
2022/12/18 01:08:58;;;;;;;26.05;13.85;;;-0.50;68.20;;;;;;2345940;57;21022;-53
2022/12/18 01:11:25;;;;;;;27.20;14.15;;;-0.60;68.10;;;;;;2346092;57;21509;-53
2022/12/18 01:13:54;;;;;;;24.95;13.62;;;-0.60;68.20;;;;;;2345768;57;21117;-46
2022/12/18 01:16:21;;;;;;;20.65;12.63;;;-0.60;68.20;;;;;;2345673;57;21621;-49
2022/12/18 01:18:53;;;;;;;27.73;13.48;;;-0.60;68.20;;;;;;2345677;57;21412;-49
2022/12/18 01:21:22;;;;;;;24.30;13.00;;;-0.60;68.20;;;;;;2345972;57;21041;-51
2022/12/18 01:23:53;;;;;;;24.92;13.50;;;-0.60;68.20;;;;;;2344849;57;21542;-49
2022/12/18 01:28:57;;;;;;;22.92;12.37;;;-0.60;68.00;;;;;;2328917;57;22126;-46
2022/12/18 01:31:26;;;;;;;19.40;12.27;;;-0.60;67.90;;;;;;2347072;57;21557;-49
2022/12/18 01:33:54;;;;;;;24.83;13.07;;;-0.70;67.80;;;;;;2347297;57;21683;-48
2022/12/18 01:36:23;;;;;;;19.05;11.90;;;-0.60;67.90;;;;;;2346853;57;21608;-50
2022/12/18 01:38:52;;;;;;;28.27;14.10;;;-0.70;67.80;;;;;;2346811;57;21517;-50
2022/12/18 01:41:21;;;;;;;20.77;11.77;;;-0.70;67.80;;;;;;2346687;57;21050;-49
2022/12/18 01:43:52;;;;;;;25.10;12.90;;;-0.70;67.80;;;;;;2345457;57;21037;-47
2022/12/18 01:46:21;;;;;;;21.77;12.30;;;-0.70;67.70;;;;;;2347178;57;21062;-51
2022/12/18 01:48:51;;;;;;;21.20;11.95;;;-0.80;67.70;;;;;;2348238;57;21042;-48
2022/12/18 01:51:19;;;;;;;25.62;12.13;;;-0.80;67.70;;;;;;2348086;57;21085;-49
2022/12/18 01:53:47;;;;;;;21.92;11.10;;;-0.80;67.80;;;;;;2347787;57;21036;-48
2022/12/18 01:56:16;;;;;;;19.05;12.05;;;-0.80;67.80;;;;;;2348449;57;21600;-47
2022/12/18 01:58:52;;;;;;;20.85;12.68;;;-0.80;68.00;;;;;;2348347;57;21513;-47
2022/12/18 02:01:21;;;;;;;23.95;12.98;;;-0.80;68.00;;;;;;2347131;57;21638;-49
2022/12/18 02:03:48;;;;;;;21.08;12.02;;;-0.80;68.00;;;;;;2346157;57;21545;-48
2022/12/18 02:06:20;;;;;;;27.27;13.57;;;-0.80;68.10;;;;;;2346361;57;21875;-51
2022/12/18 02:09:01;;;;;;;22.55;13.02;;;-0.90;68.00;;;;;;2347290;57;21169;-47
2022/12/18 02:11:39;;;;;;;25.20;12.25;;;-0.90;68.00;;;;;;2347147;57;21047;-47
2022/12/18 02:14:18;;;;;;;23.27;13.15;;;-0.90;67.90;;;;;;2346819;57;21649;-51
2022/12/18 02:16:50;;;;;;;24.58;12.93;;;-0.90;67.90;;;;;;2346106;57;21034;-48
2022/12/18 02:19:34;;;;;;;22.70;12.50;;;-0.90;67.90;;;;;;2347512;57;21069;-48
2022/12/18 02:22:14;;;;;;;23.20;11.60;;;-0.90;67.90;;;;;;2347490;57;21633;-47
2022/12/18 02:24:51;;;;;;;24.05;11.90;;;-0.90;68.00;;;;;;2347554;57;21050;-47
2022/12/18 02:27:19;;;;;;;23.42;12.30;;;-0.90;68.10;;;;;;2346654;57;21569;-50
2022/12/18 02:29:51;;;;;;;23.25;12.23;;;-0.90;68.10;;;;;;2347187;57;21718;-51
2022/12/18 02:32:24;;;;;;;24.48;12.35;;;-0.90;68.10;;;;;;2346721;57;21572;-46
2022/12/18 02:38:16;;;;;;;24.27;11.82;;;-1.00;68.10;;;;;;2327109;57;21005;-51
2022/12/18 02:40:44;;;;;;;24.67;12.88;;;-1.00;68.00;;;;;;2346490;57;21519;-47
2022/12/18 02:43:12;;;;;;;21.92;12.05;;;-1.00;68.10;;;;;;2347331;57;21026;-48
2022/12/18 02:45:49;;;;;;;24.83;12.10;;;-1.00;68.20;;;;;;2347333;57;21041;-48
2022/12/18 02:48:19;;;;;;;21.48;11.55;;;-1.00;68.30;;;;;;2347052;57;21073;-47
2022/12/18 02:50:56;;;;;;;24.23;12.27;;;-1.00;68.30;;;;;;2345474;57;21053;-48
2022/12/18 02:53:28;;;;;;;26.20;11.52;;;-1.00;68.20;;;;;;2346048;57;21557;-50
2022/12/18 02:56:03;;;;;;;23.52;12.98;;;-1.00;68.20;;;;;;2346347;57;21699;-49
2022/12/18 02:58:39;;;;;;;19.37;11.00;;;-1.00;68.00;;;;;;2344441;57;21125;-48
2022/12/18 03:01:15;;;;;;;24.45;11.80;;;-1.00;68.00;;;;;;2345797;57;21081;-47
2022/12/18 03:03:47;;;;;;;20.88;11.35;;;-1.00;68.10;;;;;;2346240;57;21086;-47
2022/12/18 03:06:20;;;;;;;15.63;9.98;;;-1.10;68.10;;;;;;2346309;57;22544;-50
2022/12/18 03:08:52;;;;;;;23.10;11.88;;;-1.00;68.20;;;;;;2345988;57;21057;-48
2022/12/18 03:12:22;;;;;;;18.70;10.07;;;-1.00;68.10;;;;;;2346819;57;21668;-47
2022/12/18 03:14:54;;;;;;;21.92;11.82;;;-1.10;68.10;;;;;;2345621;57;21062;-50
2022/12/18 03:17:25;;;;;;;22.25;12.07;;;-1.00;67.90;;;;;;2346266;57;21604;-48
2022/12/18 03:19:56;;;;;;;18.98;12.45;;;-1.10;67.90;;;;;;2345993;57;21038;-48
2022/12/18 03:22:26;;;;;;;19.92;11.02;;;-1.10;67.80;;;;;;2346132;57;21357;-48
2022/12/18 03:24:56;;;;;;;21.05;11.27;;;-1.10;67.80;;;;;;2345805;57;21619;-51
2022/12/18 03:27:25;;;;;;;20.83;11.95;;;-1.10;67.70;;;;;;2345226;57;21605;-46
2022/12/18 03:30:02;;;;;;;24.42;11.70;;;-1.10;67.70;;;;;;2345319;57;21534;-49
2022/12/18 03:32:33;;;;;;;21.55;11.95;;;-1.20;67.50;;;;;;2345918;57;21553;-49
2022/12/18 03:35:04;;;;;;;20.02;11.63;;;-1.10;67.60;;;;;;2346322;57;21759;-48
2022/12/18 03:37:35;;;;;;;21.75;11.93;;;-1.10;67.70;;;;;;2345722;57;21607;-48
2022/12/18 03:40:02;;;;;;;21.02;11.35;;;-1.20;67.50;;;;;;2346417;57;21585;-47
2022/12/18 03:42:33;;;;;;;22.45;11.88;;;-1.20;67.50;;;;;;2345455;57;21609;-50
2022/12/18 03:45:08;;;;;;;22.67;11.75;;;-1.20;67.50;;;;;;2346119;57;21613;-50
2022/12/18 03:47:42;;;;;;;21.60;12.45;;;-1.20;67.50;;;;;;2345213;57;21544;-51
2022/12/18 03:50:15;;;;;;;18.17;10.88;;;-1.20;67.50;;;;;;2345792;57;21557;-49
2022/12/18 03:52:47;;;;;;;23.85;10.93;;;-1.20;67.50;;;;;;2345875;57;21125;-46
2022/12/18 03:55:15;;;;;;;24.55;12.05;;;-1.20;67.50;;;;;;2346397;57;21534;-47
2022/12/18 03:57:44;;;;;;;21.87;11.68;;;-1.30;67.60;;;;;;2346082;57;21545;-48
2022/12/18 04:00:15;;;;;;;20.98;11.15;;;-1.30;67.60;;;;;;2346341;57;21061;-49
2022/12/18 04:02:48;;;;;;;20.70;10.95;;;-1.30;67.60;;;;;;2346475;57;21050;-47
2022/12/18 04:05:17;;;;;;;24.85;12.13;;;-1.30;67.50;;;;;;2345866;57;21601;-51
2022/12/18 04:07:46;;;;;;;20.42;11.85;;;-1.30;67.40;;;;;;2345982;57;21631;-50
2022/12/18 04:10:14;;;;;;;23.38;11.77;;;-1.30;67.30;;;;;;2346086;57;21042;-49
2022/12/18 04:12:41;;;;;;;21.42;11.60;;;-1.30;67.40;;;;;;2345617;57;21053;-47
2022/12/18 04:15:11;;;;;;;20.90;12.70;;;-1.30;67.40;;;;;;2345612;57;21573;-52
2022/12/18 04:17:39;;;;;;;20.10;11.00;;;-1.30;67.40;;;;;;2344950;57;21058;-48
2022/12/18 04:20:08;;;;;;;20.52;11.45;;;-1.30;67.30;;;;;;2345852;57;21053;-51
2022/12/18 04:22:35;;;;;;;19.95;11.10;;;-1.30;67.40;;;;;;2347341;57;21021;-48
2022/12/18 04:25:03;;;;;;;18.37;9.73;;;-1.30;67.40;;;;;;2346958;57;21574;-48
2022/12/18 04:27:30;;;;;;;20.33;10.77;;;-1.40;67.30;;;;;;2346976;57;21133;-49
2022/12/18 04:29:57;;;;;;;22.42;11.80;;;-1.40;67.50;;;;;;2346973;57;21041;-49
2022/12/18 04:32:24;;;;;;;23.98;12.35;;;-1.40;67.60;;;;;;2346268;57;21052;-48
2022/12/18 04:34:52;;;;;;;22.27;11.73;;;-1.40;67.60;;;;;;2347213;57;21033;-50
2022/12/18 04:37:19;;;;;;;25.20;12.52;;;-1.40;67.60;;;;;;2345809;57;21465;-47
2022/12/18 04:39:46;;;;;;;22.35;11.70;;;-1.40;67.50;;;;;;2345777;57;21129;-47
2022/12/18 04:42:13;;;;;;;26.35;12.10;;;-1.40;67.50;;;;;;2345961;57;21531;-47
2022/12/18 04:44:41;;;;;;;23.27;12.73;;;-1.50;67.60;;;;;;2346198;57;21054;-48
2022/12/18 04:47:08;;;;;;;22.35;11.63;;;-1.50;67.70;;;;;;2345899;57;21046;-50
2022/12/18 04:49:35;;;;;;;20.62;12.00;;;-1.50;67.60;;;;;;2345526;57;21058;-48
2022/12/18 04:52:02;;;;;;;21.73;11.82;;;-1.50;67.60;;;;;;2345292;57;21098;-48
2022/12/18 04:54:29;;;;;;;22.35;12.60;;;-1.50;67.60;;;;;;2344815;57;21073;-47
2022/12/18 04:56:57;;;;;;;24.77;12.37;;;-1.50;67.50;;;;;;2346701;57;21621;-48
2022/12/18 04:59:24;;;;;;;21.80;12.52;;;-1.50;67.40;;;;;;2346105;57;21053;-49
2022/12/18 05:01:51;;;;;;;22.73;13.32;;;-1.50;67.30;;;;;;2345765;57;21144;-52
2022/12/18 05:04:18;;;;;;;27.40;12.60;;;-1.50;67.70;;;;;;2345630;57;21061;-47
2022/12/18 05:06:45;;;;;;;26.27;12.57;;;-1.50;67.30;;;;;;2344436;57;21057;-51
2022/12/18 05:09:12;;;;;;;20.65;11.73;;;-1.50;67.30;;;;;;2343821;57;21593;-53
2022/12/18 05:11:39;;;;;;;23.65;12.30;;;-1.50;67.30;;;;;;2344614;57;21081;-51
2022/12/18 05:14:07;;;;;;;22.70;12.07;;;-1.60;67.30;;;;;;2345641;57;21122;-46
2022/12/18 05:16:34;;;;;;;22.92;12.18;;;-1.60;67.70;;;;;;2346220;57;21057;-47
2022/12/18 05:19:01;;;;;;;19.20;11.43;;;-1.60;67.30;;;;;;2346125;57;21584;-49
2022/12/18 05:21:28;;;;;;;21.95;11.63;;;-1.60;67.30;;;;;;2344535;57;21124;-50
2022/12/18 05:23:55;;;;;;;23.40;11.98;;;-1.60;67.50;;;;;;2344602;57;21316;-48
2022/12/18 05:26:22;;;;;;;21.25;11.95;;;-1.60;67.50;;;;;;2345889;57;21050;-48
2022/12/18 05:28:49;;;;;;;20.95;12.55;;;-1.60;67.50;;;;;;2346240;57;21204;-50
2022/12/18 05:31:17;;;;;;;24.00;12.93;;;-1.60;67.40;;;;;;2346043;57;21518;-48
2022/12/18 05:33:44;;;;;;;26.30;13.43;;;-1.60;67.20;;;;;;2345756;57;21052;-48
2022/12/18 05:36:12;;;;;;;22.52;11.32;;;-1.60;67.30;;;;;;2344981;57;21057;-49
2022/12/18 05:38:40;;;;;;;22.98;11.98;;;-1.60;67.20;;;;;;2345513;57;21037;-48
2022/12/18 05:41:08;;;;;;;22.35;11.68;;;-1.70;67.10;;;;;;2345718;57;21033;-48
2022/12/18 05:43:36;;;;;;;24.70;12.65;;;-1.70;67.10;;;;;;2346464;57;21073;-48
2022/12/18 05:46:06;;;;;;;23.42;12.77;;;-1.70;67.10;;;;;;2346747;57;21598;-48
2022/12/18 05:48:33;;;;;;;25.08;13.20;;;-1.70;67.20;;;;;;2346050;57;21050;-47
2022/12/18 05:51:06;;;;;;;22.87;13.05;;;-1.70;67.20;;;;;;2345376;57;21628;-48
2022/12/18 05:53:32;;;;;;;;;;;-1.70;67.30;;;;;;2347985;57;21117;-49
2022/12/18 05:56:01;;;;;;;25.08;13.23;;;-1.70;67.40;;;;;;2345322;57;20129;-48
2022/12/18 05:58:29;;;;;;;23.58;13.23;;;-1.70;67.10;;;;;;2345686;57;21630;-50
2022/12/18 06:00:57;;;;;;;24.27;13.13;;;-1.70;67.20;;;;;;2345969;57;21050;-53
2022/12/18 06:03:24;;;;;;;27.15;14.02;;;-1.70;67.20;;;;;;2345633;57;21042;-47
2022/12/18 06:05:51;;;;;;;26.48;14.65;;;-1.80;67.20;;;;;;2343792;57;21636;-48
2022/12/18 06:08:18;;;;;;;25.58;13.80;;;-1.80;67.10;;;;;;2344346;57;21068;-49
2022/12/18 06:10:52;;;;;;;28.17;14.40;;;-1.80;67.10;;;;;;2345468;57;21124;-48
2022/12/18 06:13:19;;;;;;;27.60;13.98;;;-1.80;67.20;;;;;;2345052;57;21030;-48
2022/12/18 06:15:47;;;;;;;31.62;15.73;;;-1.80;67.20;;;;;;2346789;57;21524;-48
2022/12/18 06:18:14;;;;;;;27.70;14.35;;;-1.80;67.20;;;;;;2345975;57;21061;-48
2022/12/18 06:20:41;;;;;;;29.85;15.52;;;-1.80;67.10;;;;;;2345555;57;21050;-49
2022/12/18 06:23:09;;;;;;;22.62;14.48;;;-1.80;67.20;;;;;;2345939;57;21049;-51
2022/12/18 06:28:13;;;;;;;26.15;14.18;;;-1.80;67.10;;;;;;2355467;57;22086;-49
2022/12/18 06:30:43;;;;;;;32.17;14.20;;;-1.80;67.10;;;;;;2347210;57;21077;-50
2022/12/18 06:33:10;;;;;;;25.70;13.93;;;-1.90;67.00;;;;;;2346964;57;21541;-48
2022/12/18 06:35:37;;;;;;;30.95;14.73;;;-1.90;67.00;;;;;;2346120;57;21817;-50
2022/12/18 06:38:04;;;;;;;29.90;15.75;;;-1.90;67.10;;;;;;2345739;57;21038;-50
2022/12/18 06:40:31;;;;;;;33.97;16.05;;;-1.90;67.20;;;;;;2345313;57;21188;-50
2022/12/18 06:42:58;;;;;;;30.52;15.82;;;-1.90;67.20;;;;;;2344797;57;21090;-49
2022/12/18 06:45:26;;;;;;;26.50;14.98;;;-1.90;67.30;;;;;;2345518;57;21589;-48
2022/12/18 06:47:53;;;;;;;25.67;14.25;;;-1.90;67.30;;;;;;2345568;57;21065;-48
2022/12/18 06:50:20;;;;;;;25.98;13.77;;;-1.90;67.40;;;;;;2342942;57;21759;-50
2022/12/18 06:52:48;;;;;;;29.95;15.48;;;-1.90;67.60;;;;;;2591664;53;21304;-47
2022/12/18 06:55:15;;;;;;;31.23;15.25;;;-1.90;67.60;;;;;;2345557;57;21117;-50
2022/12/18 06:57:42;;;;;;;29.52;16.02;;;-1.90;67.60;;;;;;2345297;57;21134;-49
2022/12/18 07:00:11;;;;;;;31.67;16.30;;;-2.00;67.40;;;;;;2344669;57;21038;-48
2022/12/18 07:02:38;;;;;;;32.40;16.75;;;-2.00;67.30;;;;;;2346888;57;21537;-48
2022/12/18 07:05:07;;;;;;;30.90;15.95;;;-2.00;67.30;;;;;;2346684;57;21025;-49
2022/12/18 07:07:35;;;;;;;32.55;15.98;;;-2.00;67.40;;;;;;2346211;57;21157;-49
2022/12/18 07:10:02;;;;;;;31.20;15.60;;;-2.00;67.40;;;;;;2345873;57;21054;-53
2022/12/18 07:12:29;;;;;;;41.17;17.48;;;-2.00;67.40;;;;;;2344957;57;22082;-50
2022/12/18 07:14:56;;;;;;;32.72;16.08;;;-2.00;67.70;;;;;;2591576;53;21046;-49
2022/12/18 07:17:24;;;;;;;32.85;16.77;;;-2.00;67.80;;;;;;2345689;57;21053;-52
2022/12/18 07:19:51;;;;;;;29.58;15.32;;;-2.10;67.80;;;;;;2345569;57;21097;-52
2022/12/18 07:22:18;;;;;;;28.60;15.50;;;-2.00;67.80;;;;;;2345228;57;21515;-52
2022/12/18 07:24:45;;;;;;;29.30;16.00;;;-2.00;67.90;;;;;;2346274;57;21660;-49
2022/12/18 07:27:12;;;;;;;29.58;15.55;;;-2.00;67.90;;;;;;2345438;57;21545;-53
2022/12/18 07:29:39;;;;;;;31.87;16.42;;;-2.00;67.80;;;;;;2345828;57;21569;-50
2022/12/18 07:32:07;;;;;;;30.77;15.70;;;-2.00;67.90;;;;;;2344975;57;21133;-51
2022/12/18 07:34:34;;;;;;;33.28;15.25;;;-2.00;67.80;;;;;;2345621;57;21113;-53
2022/12/18 07:37:01;;;;;;;32.72;15.50;;;-2.00;67.60;;;;;;2591754;53;21050;-47
2022/12/18 07:39:28;;;;;;;36.33;16.08;;;-2.00;67.50;;;;;;2344957;57;21114;-48
2022/12/18 07:44:41;;;;;;;27.20;14.15;;;-2.00;67.50;;;;;;2344397;57;21073;-48
2022/12/18 07:47:08;;;;;;;29.63;16.42;;;-2.00;67.60;;;;;;2344354;57;21065;-50
2022/12/18 07:49:36;;;;;;;28.52;15.35;;;-2.00;67.90;;;;;;2344116;57;21053;-48
2022/12/18 07:52:03;;;;;;;35.80;15.60;;;-2.00;68.00;;;;;;2343595;57;21500;-50
2022/12/18 07:54:30;;;;;;;29.12;15.68;;;-2.00;67.90;;;;;;2344855;57;21129;-50
2022/12/18 07:56:58;;;;;;;31.67;16.10;;;-2.00;68.00;;;;;;2344386;57;21030;-50
2022/12/18 07:59:25;;;;;;;31.85;16.90;;;-2.00;68.00;;;;;;2344894;57;21046;-51
2022/12/18 08:01:52;;;;;;;31.92;15.75;;;-1.90;68.10;;;;;;2343473;57;21573;-48
2022/12/18 08:04:19;;;;;;;30.85;15.63;;;-1.90;68.10;;;;;;2343624;57;21590;-54
2022/12/18 08:06:47;;;;;;;26.40;14.70;;;-1.90;68.10;;;;;;2343349;57;21142;-49
2022/12/18 08:09:14;;;;;;;31.10;14.85;;;-1.90;68.10;;;;;;2343931;57;21030;-53
2022/12/18 08:11:41;;;;;;;33.50;15.15;;;-1.90;68.10;;;;;;2344723;57;21035;-51
2022/12/18 08:14:09;;;;;;;28.42;15.50;;;-1.90;68.10;;;;;;2344731;57;21050;-54
2022/12/18 08:16:37;;;;;;;35.75;16.27;;;-1.90;68.10;;;;;;2344389;57;21602;-52
2022/12/18 08:19:04;;;;;;;28.83;14.50;;;-1.90;68.90;;;;;;2343806;57;21566;-49
2022/12/18 08:21:31;;;;;;;30.42;16.25;;;-1.90;68.10;;;;;;2343726;57;21574;-51
2022/12/18 08:24:01;;;;;;;30.27;14.87;;;-1.90;68.10;;;;;;2343187;57;21038;-52
2022/12/18 08:26:30;;;;;;;33.63;16.23;;;-1.80;68.10;;;;;;2343807;57;21058;-50
2022/12/18 08:29:00;;;;;;;33.53;15.70;;;-1.80;68.20;;;;;;2344086;57;21582;-52
2022/12/18 08:31:29;;;;;;;34.47;17.30;;;-1.80;68.40;;;;;;2342952;57;22482;-51
2022/12/18 08:33:56;;;;;;;34.20;15.32;;;-1.80;68.50;;;;;;2342939;57;21597;-51
2022/12/18 08:36:25;;;;;;;30.75;15.25;;;-1.80;68.50;;;;;;2343350;57;22216;-51
2022/12/18 08:38:52;;;;;;;34.97;17.25;;;-1.70;69.40;;;;;;2343874;57;21066;-51
2022/12/18 08:41:21;;;;;;;35.47;15.57;;;-1.70;68.40;;;;;;2345471;57;21038;-48
2022/12/18 08:46:36;;;;;;;26.65;15.18;;;-1.70;68.30;;;;;;2591919;53;20923;-48
2022/12/18 08:49:03;;;;;;;33.15;16.20;;;-1.70;68.20;;;;;;2344265;57;21069;-50
2022/12/18 08:51:31;;;;;;;32.17;16.05;;;-1.60;68.20;;;;;;2342954;57;21624;-48
2022/12/18 08:53:58;;;;;;;35.17;17.05;;;-1.60;68.20;;;;;;2343946;57;21046;-50
2022/12/18 08:56:25;;;;;;;33.25;16.85;;;-1.60;68.20;;;;;;2343939;57;21118;-51
2022/12/18 08:58:54;;;;;;;37.15;17.15;;;-1.60;68.10;;;;;;2344502;57;21518;-49
2022/12/18 09:01:22;;;;;;;33.35;15.20;;;-1.50;68.10;;;;;;2343420;57;21664;-48
2022/12/18 09:03:50;;;;;;;31.55;15.38;;;-1.50;68.10;;;;;;2343118;57;21617;-51
2022/12/18 09:06:18;;;;;;;33.10;16.60;;;-1.50;68.10;;;;;;2365882;52;21038;-48
2022/12/18 09:08:46;;;;;;;32.33;17.08;;;-1.50;68.10;;;;;;2374290;56;21114;-47
2022/12/18 09:11:18;;;;;;;37.83;17.08;;;-1.50;68.00;;;;;;2376314;56;21561;-47
2022/12/18 09:13:45;;;;;;;29.58;15.63;;;-1.50;68.00;;;;;;2376145;56;21106;-49
2022/12/18 09:16:13;;;;;;;27.48;14.25;;;-1.40;68.10;;;;;;2626671;52;21086;-49
2022/12/18 09:18:40;;;;;;;33.53;15.80;;;-1.50;68.00;;;;;;2372847;56;21594;-45
2022/12/18 09:21:12;;;;;;;33.65;17.12;;;-1.40;67.90;;;;;;2373672;56;21015;-51
2022/12/18 09:23:39;;;;;;;30.37;16.23;;;-1.40;67.90;;;;;;2373796;56;21514;-48
2022/12/18 09:26:06;;;;;;;30.92;15.70;;;-1.40;68.10;;;;;;2626643;52;21983;-46
2022/12/18 09:28:33;;;;;;;29.60;14.95;;;-1.40;68.70;;;;;;2373927;56;21503;-49
2022/12/18 09:31:05;;;;;;;30.60;15.13;;;-1.40;67.90;;;;;;2373765;56;21673;-49
2022/12/18 09:33:33;;;;;;;30.35;15.98;;;-1.40;67.80;;;;;;2374234;56;21491;-48
2022/12/18 09:36:02;;;;;;;39.03;16.08;;;-1.30;67.90;;;;;;2374677;56;21713;-46
2022/12/18 09:38:29;;;;;;;37.35;16.85;;;-1.30;67.90;;;;;;2375306;56;20991;-47
2022/12/18 09:41:00;;;;;;;31.95;16.37;;;-1.30;67.80;;;;;;2374012;56;21031;-46
2022/12/18 09:43:34;;;;;;;30.33;15.18;;;-1.30;67.70;;;;;;2373644;56;21045;-46
2022/12/18 09:46:05;;;;;;;28.33;13.85;;;-1.20;67.80;;;;;;2372950;56;21162;-46
2022/12/18 09:48:36;;;;;;;34.08;16.00;;;-1.20;67.90;;;;;;2373460;56;22126;-46
2022/12/18 09:51:12;;;;;;;33.22;15.45;;;-1.20;67.90;;;;;;2372371;56;21589;-51
2022/12/18 09:53:43;;;;;;;30.73;15.13;;;-1.10;67.80;;;;;;2373788;56;21011;-46
2022/12/18 09:56:16;;;;;;;25.00;13.45;;;-1.10;67.70;;;;;;2374205;56;21951;-49
2022/12/18 09:58:52;;;;;;;32.78;16.20;;;-1.10;67.90;;;;;;2372831;56;21553;-47
2022/12/18 10:01:22;;;;;;;32.25;14.93;;;-1.10;68.00;;;;;;2374315;56;21093;-47
2022/12/18 10:03:51;;;;;;;27.17;13.35;;;-1.10;68.20;;;;;;2374363;56;21518;-47
2022/12/18 10:06:25;;;;;;;26.62;13.50;;;-1.00;68.30;;;;;;2372651;56;21604;-49
2022/12/18 10:08:58;;;;;;;28.52;14.10;;;-1.00;68.40;;;;;;2371930;56;21507;-46
2022/12/18 10:11:38;;;;;;;26.42;12.48;;;-0.90;68.30;;;;;;2371412;56;21050;-46
2022/12/18 10:14:12;;;;;;;26.65;14.45;;;-0.90;68.30;;;;;;2370245;56;21095;-48
2022/12/18 10:16:47;;;;;;;33.13;14.63;;;-0.90;68.10;;;;;;2371791;56;21015;-49
2022/12/18 10:19:37;;;;;;;29.98;14.40;;;-0.90;68.20;;;;;;2374245;56;21018;-48
2022/12/18 10:22:16;;;;;;;32.75;14.32;;;-0.80;68.40;;;;;;2373753;56;21007;-49
2022/12/18 10:24:54;;;;;;;34.25;14.45;;;-0.80;68.40;;;;;;2374734;56;20991;-51
2022/12/18 10:27:24;;;;;;;33.22;15.23;;;-0.70;68.30;;;;;;2374414;56;21015;-51
2022/12/18 10:29:52;;;;;;;33.10;15.60;;;-0.70;68.20;;;;;;2628438;52;21007;-47
2022/12/18 10:32:21;;;;;;;29.35;14.55;;;-0.70;68.20;;;;;;2372923;56;21073;-48
2022/12/18 10:34:49;;;;;;;30.55;15.43;;;-0.70;68.20;;;;;;2374710;56;21555;-53
2022/12/18 10:37:19;;;;;;;31.95;14.93;;;-0.60;68.10;;;;;;2371886;56;21011;-48
2022/12/18 10:39:46;;;;;;;32.88;14.85;;;-0.60;68.00;;;;;;2372418;56;21566;-50
2022/12/18 10:42:18;;;;;;;32.58;15.30;;;-0.60;68.00;;;;;;2372256;56;21609;-48
2022/12/18 10:44:45;;;;;;;34.00;15.13;;;-0.60;67.80;;;;;;2373071;56;21026;-50
2022/12/18 10:47:16;;;;;;;42.42;18.50;;;-0.60;67.80;;;;;;2373622;56;21035;-55
2022/12/18 10:49:49;;;;;;;38.33;16.62;;;-0.50;67.80;;;;;;2372814;56;21086;-50
2022/12/18 10:52:19;;;;;;;41.30;16.17;;;-0.50;67.70;;;;;;2373246;56;21082;-46
2022/12/18 10:54:51;;;;;;;33.15;16.37;;;-0.40;67.70;;;;;;2373089;56;22316;-49
2022/12/18 10:57:31;;;;;;;41.25;18.33;;;-0.40;67.60;;;;;;2373211;56;22387;-51
2022/12/18 11:00:02;;;;;;;38.75;17.45;;;-0.40;67.50;;;;;;2627669;52;21027;-48
2022/12/18 11:02:35;;;;;;;40.40;17.42;;;-0.40;67.20;;;;;;2373671;56;21078;-50
2022/12/18 11:05:22;;;;;;;34.78;16.15;;;-0.30;67.20;;;;;;2372324;56;21800;-52
2022/12/18 11:07:50;;;;;;;34.75;16.02;;;-0.30;67.30;;;;;;2373172;56;21494;-48
2022/12/18 11:10:20;;;;;;;35.22;16.00;;;-0.30;67.30;;;;;;2372255;56;21063;-49
2022/12/18 11:12:48;;;;;;;33.35;15.20;;;-0.30;67.40;;;;;;2373164;56;21679;-49
2022/12/18 11:15:20;;;;;;;36.35;17.12;;;-0.20;67.50;;;;;;2374259;56;21070;-50
2022/12/18 11:17:49;;;;;;;36.00;17.60;;;-0.20;67.50;;;;;;2373941;56;22051;-48
2022/12/18 11:20:27;;;;;;;39.30;17.20;;;-0.10;67.40;;;;;;2372738;56;21034;-49
2022/12/18 11:22:59;;;;;;;37.58;17.00;;;-0.10;67.30;;;;;;2375448;56;21061;-50
2022/12/18 11:25:30;;;;;;;35.97;17.77;;;-0.10;67.10;;;;;;2375331;56;21066;-49
2022/12/18 11:27:59;;;;;;;32.13;16.15;;;-0.10;66.70;;;;;;2373928;56;21046;-48
2022/12/18 11:30:29;;;;;;;61.40;31.50;;;0.00;66.70;;;;;;2374150;56;21557;-48
2022/12/18 11:33:06;;;;;;;65.68;36.42;;;0.00;66.60;;;;;;2374442;56;21094;-50
2022/12/18 11:35:45;;;;;;;50.05;23.90;;;0.00;66.50;;;;;;2373333;56;21019;-51
2022/12/18 11:38:22;;;;;;;47.80;24.75;;;0.00;66.50;;;;;;2372984;56;21035;-50
2022/12/18 11:40:57;;;;;;;56.35;34.22;;;0.00;66.50;;;;;;2373642;56;21031;-49
2022/12/18 11:43:29;;;;;;;47.05;25.20;;;0.10;66.50;;;;;;2374014;56;21506;-50
2022/12/18 11:45:59;;;;;;;;;;;0.10;66.70;;;;;;2377952;56;21760;-50
2022/12/18 11:48:30;;;;;;;38.22;19.60;;;0.20;67.00;;;;;;2374654;56;20070;-49
2022/12/18 11:50:59;;;;;;;38.00;19.95;;;0.30;66.80;;;;;;2374046;56;21605;-49
2022/12/18 11:53:27;;;;;;;36.50;18.45;;;0.30;67.00;;;;;;2372950;56;21499;-49
2022/12/18 11:56:08;;;;;;;36.92;18.02;;;0.30;67.00;;;;;;2373985;56;21007;-48
2022/12/18 11:58:46;;;;;;;43.03;19.05;;;0.40;67.00;;;;;;2374073;56;21023;-48
2022/12/18 12:01:27;;;;;;;32.80;16.65;;;0.40;66.80;;;;;;2374837;56;21039;-49
2022/12/18 12:04:28;;;;;;;42.47;18.08;;;0.40;66.70;;;;;;2374535;56;21011;-51
2022/12/18 12:07:03;;;;;;;35.72;16.52;;;0.50;66.60;;;;;;2375281;56;21137;-48
2022/12/18 12:09:37;;;;;;;32.55;16.45;;;0.50;66.50;;;;;;2374521;56;21050;-50
2022/12/18 12:12:21;;;;;;;31.77;15.85;;;0.60;66.30;;;;;;2375673;56;20995;-47
2022/12/18 12:14:57;;;;;;;31.62;15.23;;;0.60;66.20;;;;;;2373317;56;21847;-47
2022/12/18 12:17:33;;;;;;;39.03;18.10;;;0.60;66.00;;;;;;2373871;56;22116;-48
2022/12/18 12:20:08;;;;;;;34.47;14.77;;;0.70;66.00;;;;;;2373060;56;21727;-48
2022/12/18 12:22:41;;;;;;;36.08;16.25;;;0.70;65.60;;;;;;2373588;56;21079;-52
2022/12/18 12:25:26;;;;;;;33.20;15.18;;;0.70;65.20;;;;;;2373753;56;21950;-48
2022/12/18 12:28:02;;;;;;;34.08;14.52;;;0.70;65.10;;;;;;2372986;56;21605;-44
2022/12/18 12:33:21;;;;;;;35.47;15.25;;;0.70;65.00;;;;;;2355291;57;22093;-47
2022/12/18 12:35:55;;;;;;;35.53;16.65;;;0.70;65.10;;;;;;2345636;57;21604;-46
2022/12/18 12:38:25;;;;;;;34.88;15.52;;;0.70;65.20;;;;;;2345635;57;21046;-48
2022/12/18 12:40:58;;;;;;;40.03;15.95;;;0.80;65.20;;;;;;2344283;57;21526;-47
2022/12/18 12:43:33;;;;;;;36.05;15.38;;;0.70;65.10;;;;;;2344207;57;21136;-47
2022/12/18 12:46:06;;;;;;;37.03;15.60;;;0.80;65.10;;;;;;2345161;57;21002;-51
2022/12/18 12:48:41;;;;;;;35.78;15.98;;;0.70;65.00;;;;;;2344344;57;21030;-48
2022/12/18 12:51:13;;;;;;;37.85;15.90;;;0.80;64.80;;;;;;2344292;57;21148;-50
2022/12/18 12:53:41;;;;;;;32.38;15.48;;;0.70;64.60;;;;;;2344510;57;21065;-50
2022/12/18 12:56:12;;;;;;;35.53;15.38;;;0.80;64.70;;;;;;2345857;57;21153;-47
2022/12/18 12:58:46;;;;;;;34.05;15.45;;;0.70;64.60;;;;;;2346343;57;21018;-48
2022/12/18 13:01:23;;;;;;;36.33;16.23;;;0.70;64.60;;;;;;2345900;57;21549;-45
2022/12/18 13:04:01;;;;;;;37.65;16.67;;;0.70;64.50;;;;;;2345457;57;21026;-48
2022/12/18 13:06:40;;;;;;;32.03;15.52;;;0.70;64.50;;;;;;2345320;57;21046;-47